createdAt,value
2023-04-18T00:01:55.765Z,8.44
2023-04-18T00:04:24.168Z,8.35
2023-04-18T00:06:52.418Z,8.30
2023-04-18T00:09:20.812Z,8.27
2023-04-18T00:11:48.913Z,8.23
2023-04-18T00:14:17.039Z,8.24
2023-04-18T00:16:46.425Z,8.18
2023-04-18T00:19:14.600Z,8.18
2023-04-18T00:21:44.914Z,8.22
2023-04-18T00:24:13.537Z,8.20
2023-04-18T00:26:41.961Z,8.26
2023-04-18T00:29:10.042Z,8.30
2023-04-18T00:31:38.468Z,8.35
2023-04-18T00:34:06.623Z,8.18
2023-04-18T00:36:34.876Z,8.04
2023-04-18T00:39:03.819Z,8.08
2023-04-18T00:41:32.503Z,8.17
2023-04-18T00:44:01.557Z,8.12
2023-04-18T00:46:29.853Z,8.12
2023-04-18T00:48:58.168Z,8.15
2023-04-18T00:51:28.091Z,8.22
2023-04-18T00:53:57.143Z,8.20
2023-04-18T00:56:26.059Z,8.17
2023-04-18T00:58:54.498Z,8.06
2023-04-18T01:01:22.542Z,8.17
2023-04-18T01:03:51.294Z,8.21
2023-04-18T01:06:19.878Z,8.12
2023-04-18T01:08:48.086Z,8.09
2023-04-18T01:11:16.193Z,8.20
2023-04-18T01:14:01.751Z,8.23
2023-04-18T01:16:32.867Z,8.25
2023-04-18T01:19:02.269Z,8.28
2023-04-18T01:21:31.361Z,8.28
2023-04-18T01:24:19.889Z,8.23
2023-04-18T01:26:48.901Z,8.26
2023-04-18T01:29:21.462Z,8.34
2023-04-18T01:31:53.944Z,8.41
2023-04-18T01:34:21.984Z,8.25
2023-04-18T01:36:50.180Z,8.40
2023-04-18T01:39:18.575Z,8.28
2023-04-18T01:41:46.822Z,8.35
2023-04-18T01:44:15.132Z,8.31
2023-04-18T01:46:43.660Z,8.13
2023-04-18T01:49:11.746Z,8.17
2023-04-18T01:51:39.948Z,8.19
2023-04-18T01:54:08.119Z,8.11
2023-04-18T01:56:36.507Z,7.96
2023-04-18T01:59:04.804Z,7.90
2023-04-18T02:01:33.956Z,7.94
2023-04-18T02:04:02.119Z,7.85
2023-04-18T02:06:30.917Z,7.93
2023-04-18T02:09:01.153Z,7.72
2023-04-18T02:11:30.061Z,7.77
2023-04-18T02:13:59.726Z,7.73
2023-04-18T02:16:27.949Z,7.76
2023-04-18T02:18:56.651Z,7.85
2023-04-18T02:21:24.689Z,7.78
2023-04-18T02:23:53.588Z,7.76
2023-04-18T02:26:23.685Z,7.58
2023-04-18T02:28:53.728Z,7.63
2023-04-18T02:31:23.118Z,7.61
2023-04-18T02:33:51.329Z,7.53
2023-04-18T02:36:23.510Z,7.61
2023-04-18T02:38:51.484Z,7.61
2023-04-18T02:41:21.455Z,7.51
2023-04-18T02:43:49.578Z,7.52
2023-04-18T02:46:18.135Z,7.49
2023-04-18T02:48:48.518Z,7.54
2023-04-18T02:51:16.978Z,7.45
2023-04-18T02:53:45.073Z,7.36
2023-04-18T02:56:17.575Z,7.40
2023-04-18T02:59:04.453Z,7.48
2023-04-18T03:01:48.357Z,7.32
2023-04-18T03:04:19.848Z,7.14
2023-04-18T03:06:59.297Z,7.13
2023-04-18T03:09:28.058Z,7.19
2023-04-18T03:11:59.384Z,7.24
2023-04-18T03:14:28.726Z,7.08
2023-04-18T03:16:57.201Z,7.12
2023-04-18T03:19:29.363Z,7.16
2023-04-18T03:21:59.271Z,7.15
2023-04-18T03:24:28.498Z,7.22
2023-04-18T03:26:59.906Z,7.24
2023-04-18T03:29:28.416Z,7.05
2023-04-18T03:31:57.231Z,7.12
2023-04-18T03:34:25.409Z,7.07
2023-04-18T03:36:54.164Z,7.13
2023-04-18T03:39:25.526Z,7.19
2023-04-18T03:41:54.282Z,7.22
2023-04-18T03:44:22.496Z,7.25
2023-04-18T03:46:50.701Z,7.18
2023-04-18T03:49:19.499Z,7.11
2023-04-18T03:51:50.793Z,7.32
2023-04-18T03:54:19.151Z,7.55
2023-04-18T03:56:47.306Z,7.61
2023-04-18T03:59:15.871Z,7.49
2023-04-18T04:01:46.734Z,7.60
2023-04-18T04:04:15.728Z,7.65
2023-04-18T04:06:44.338Z,7.87
2023-04-18T04:09:12.514Z,7.79
2023-04-18T04:11:40.874Z,7.78
2023-04-18T04:14:11.042Z,7.74
2023-04-18T04:16:42.677Z,7.96
2023-04-18T04:19:11.740Z,8.13
2023-04-18T04:21:44.841Z,8.22
2023-04-18T04:24:16.049Z,8.25
2023-04-18T04:26:50.824Z,8.32
2023-04-18T04:29:21.653Z,8.28
2023-04-18T04:31:50.327Z,8.33
2023-04-18T04:34:26.975Z,8.45
2023-04-18T04:36:55.538Z,8.80
2023-04-18T04:39:25.078Z,9.21
2023-04-18T04:42:04.746Z,9.47
2023-04-18T04:44:43.948Z,9.65
2023-04-18T04:47:12.335Z,9.77
2023-04-18T04:49:40.893Z,9.80
2023-04-18T04:52:09.083Z,9.91
2023-04-18T04:54:37.364Z,10.09
2023-04-18T04:57:06.045Z,10.25
2023-04-18T04:59:34.524Z,10.52
2023-04-18T05:02:03.060Z,10.86
2023-04-18T05:04:31.616Z,11.20
2023-04-18T05:06:59.978Z,11.24
2023-04-18T05:09:28.091Z,10.88
2023-04-18T05:11:56.267Z,10.20
2023-04-18T05:14:25.315Z,9.98
2023-04-18T05:16:53.834Z,9.77
2023-04-18T05:19:22.114Z,9.72
2023-04-18T05:21:50.309Z,9.62
2023-04-18T05:24:18.720Z,9.69
2023-04-18T05:26:46.840Z,9.80
2023-04-18T05:29:14.973Z,9.72
2023-04-18T05:31:43.113Z,9.55
2023-04-18T05:34:11.362Z,9.63
2023-04-18T05:36:39.800Z,9.63
2023-04-18T05:39:08.278Z,9.74
2023-04-18T05:41:36.894Z,9.76
2023-04-18T05:44:05.857Z,9.85
2023-04-18T05:46:34.374Z,9.95
2023-04-18T05:49:02.810Z,10.06
2023-04-18T05:51:31.460Z,10.17
2023-04-18T05:53:59.735Z,10.09
2023-04-18T05:56:27.834Z,10.06
2023-04-18T05:58:56.185Z,10.25
2023-04-18T06:01:24.296Z,10.45
2023-04-18T06:03:52.541Z,10.62
2023-04-18T06:06:21.857Z,10.52
2023-04-18T06:08:49.979Z,10.27
2023-04-18T06:11:20.241Z,10.43
2023-04-18T06:13:49.754Z,10.63
2023-04-18T06:16:18.076Z,10.64
2023-04-18T06:18:46.814Z,10.80
2023-04-18T06:21:14.909Z,10.89
2023-04-18T06:23:42.974Z,11.05
2023-04-18T06:26:11.969Z,11.24
2023-04-18T06:28:40.297Z,11.15
2023-04-18T06:31:08.733Z,11.14
2023-04-18T06:33:37.932Z,10.99
2023-04-18T06:36:07.309Z,10.98
2023-04-18T06:38:35.803Z,11.05
2023-04-18T06:41:04.098Z,11.29
2023-04-18T06:43:32.879Z,11.26
2023-04-18T06:46:04.691Z,11.29
2023-04-18T06:48:32.877Z,11.45
2023-04-18T06:51:01.417Z,11.79
2023-04-18T06:53:29.641Z,11.81
2023-04-18T06:55:57.705Z,11.93
2023-04-18T06:58:25.976Z,12.05
2023-04-18T07:00:54.444Z,12.37
2023-04-18T07:03:23.011Z,12.38
2023-04-18T07:05:51.635Z,12.31
2023-04-18T07:08:20.843Z,12.12
2023-04-18T07:10:48.934Z,12.04
2023-04-18T07:13:18.044Z,12.07
2023-04-18T07:15:46.195Z,12.05
2023-04-18T07:18:20.560Z,12.12
2023-04-18T07:20:54.819Z,12.16
2023-04-18T07:23:23.207Z,12.09
2023-04-18T07:25:51.855Z,12.02
2023-04-18T07:28:21.037Z,11.98
2023-04-18T07:30:49.093Z,11.90
2023-04-18T07:33:17.808Z,11.80
2023-04-18T07:35:47.294Z,11.79
2023-04-18T07:38:16.728Z,11.92
2023-04-18T07:40:45.694Z,12.21
2023-04-18T07:43:14.044Z,12.33
2023-04-18T07:45:43.430Z,12.28
2023-04-18T07:48:11.722Z,12.29
2023-04-18T07:50:40.291Z,12.36
2023-04-18T07:53:09.212Z,12.47
2023-04-18T07:55:37.622Z,12.51
2023-04-18T07:58:06.012Z,12.40
2023-04-18T08:00:37.138Z,12.47
2023-04-18T08:03:07.803Z,12.33
2023-04-18T08:05:36.209Z,12.35
2023-04-18T08:08:06.346Z,12.21
2023-04-18T08:10:34.959Z,12.03
2023-04-18T08:13:03.363Z,12.02
2023-04-18T08:15:32.949Z,12.21
2023-04-18T08:18:01.459Z,12.13
2023-04-18T08:20:29.914Z,12.21
2023-04-18T08:23:07.313Z,12.20
2023-04-18T08:25:39.101Z,12.18
2023-04-18T08:28:08.304Z,12.16
2023-04-18T08:30:36.807Z,12.36
2023-04-18T08:33:05.013Z,12.34
2023-04-18T08:35:33.785Z,12.38
2023-04-18T08:38:02.751Z,12.41
2023-04-18T08:40:31.806Z,12.47
2023-04-18T08:42:59.933Z,12.48
2023-04-18T08:45:28.923Z,12.54
2023-04-18T08:47:58.998Z,12.65
2023-04-18T08:50:27.854Z,12.74
2023-04-18T08:52:56.214Z,12.91
2023-04-18T08:55:24.406Z,13.18
2023-04-18T08:57:54.973Z,13.32
2023-04-18T09:00:23.790Z,13.40
2023-04-18T09:02:57.003Z,13.65
2023-04-18T09:05:26.988Z,13.69
2023-04-18T09:07:56.222Z,13.73
2023-04-18T09:10:34.427Z,13.84
2023-04-18T09:13:03.766Z,13.98
2023-04-18T09:15:34.568Z,13.97
2023-04-18T09:18:03.514Z,13.94
2023-04-18T09:20:41.418Z,14.11
2023-04-18T09:23:11.496Z,14.14
2023-04-18T09:25:48.172Z,14.16
2023-04-18T09:28:28.810Z,14.26
2023-04-18T09:30:57.633Z,14.35
2023-04-18T09:33:32.574Z,14.63
2023-04-18T09:36:16.863Z,14.79
2023-04-18T09:38:45.054Z,14.66
2023-04-18T09:41:13.609Z,14.70
2023-04-18T09:43:41.890Z,14.72
2023-04-18T09:46:10.203Z,15.09
2023-04-18T09:48:40.230Z,15.05
2023-04-18T09:51:15.050Z,15.16
2023-04-18T09:53:47.921Z,15.23
2023-04-18T09:56:26.359Z,15.30
2023-04-18T09:58:58.922Z,15.05
2023-04-18T10:01:28.162Z,15.00
2023-04-18T10:03:56.850Z,15.22
2023-04-18T10:06:26.989Z,15.43
2023-04-18T10:08:55.104Z,15.72
2023-04-18T10:11:24.395Z,16.10
2023-04-18T10:13:55.232Z,16.48
2023-04-18T10:16:23.397Z,16.46
2023-04-18T10:18:51.912Z,16.49
2023-04-18T10:21:20.613Z,16.23
2023-04-18T10:23:49.281Z,15.97
2023-04-18T10:26:17.392Z,15.83
2023-04-18T10:28:55.110Z,15.68
2023-04-18T10:31:27.810Z,15.25
2023-04-18T10:36:30.728Z,14.95
2023-04-18T10:39:04.222Z,14.76
2023-04-18T10:41:34.386Z,14.64
2023-04-18T10:44:18.337Z,14.74
2023-04-18T10:46:52.469Z,14.82
2023-04-18T10:49:26.852Z,14.77
2023-04-18T10:52:02.889Z,14.54
2023-04-18T10:54:39.251Z,14.35
2023-04-18T10:57:11.369Z,14.24
2023-04-18T10:59:43.792Z,14.13
2023-04-18T11:02:24.580Z,14.17
2023-04-18T11:04:53.960Z,14.17
2023-04-18T11:07:41.822Z,14.17
2023-04-18T11:10:10.104Z,14.19
2023-04-18T11:12:40.865Z,14.02
2023-04-18T11:15:22.294Z,14.02
2023-04-18T11:17:58.724Z,14.20
2023-04-18T11:20:27.137Z,14.00
2023-04-18T11:22:58.867Z,13.89
2023-04-18T11:25:28.026Z,13.90
2023-04-18T11:27:58.884Z,13.92
2023-04-18T11:30:27.368Z,13.71
2023-04-18T11:32:56.159Z,13.72
2023-04-18T11:35:24.624Z,13.71
2023-04-18T11:37:54.248Z,13.54
2023-04-18T11:40:22.399Z,13.36
2023-04-18T11:42:50.906Z,13.24
2023-04-18T11:45:18.995Z,13.12
2023-04-18T11:47:47.432Z,13.15
2023-04-18T11:50:15.694Z,12.98
2023-04-18T11:52:44.201Z,12.84
2023-04-18T11:55:17.923Z,12.93
2023-04-18T11:57:52.108Z,12.95
2023-04-18T12:00:30.914Z,12.92
2023-04-18T12:02:59.505Z,13.01
2023-04-18T12:05:32.178Z,12.79
2023-04-18T12:08:13.778Z,12.78
2023-04-18T12:10:54.722Z,12.92
2023-04-18T12:13:32.051Z,12.96
2023-04-18T12:16:01.941Z,12.85
2023-04-18T12:18:31.642Z,12.86
2023-04-18T12:21:02.365Z,12.98
2023-04-18T12:23:39.145Z,13.07
2023-04-18T12:26:14.656Z,13.20
2023-04-18T12:28:44.839Z,13.22
2023-04-18T12:31:13.095Z,12.98
2023-04-18T12:33:41.345Z,12.46
2023-04-18T12:36:10.081Z,12.62
2023-04-18T12:38:38.254Z,12.70
2023-04-18T12:41:06.432Z,12.84
2023-04-18T12:43:34.666Z,12.99
2023-04-18T12:46:02.741Z,12.73
2023-04-18T12:48:30.983Z,12.77
2023-04-18T12:50:59.126Z,12.85
2023-04-18T12:53:27.383Z,12.84
2023-04-18T12:55:56.572Z,12.93
2023-04-18T12:58:24.679Z,12.96
2023-04-18T13:00:52.765Z,13.01
2023-04-18T13:03:21.358Z,13.09
2023-04-18T13:05:49.804Z,13.12
2023-04-18T13:08:18.277Z,13.20
2023-04-18T13:10:47.788Z,13.15
2023-04-18T13:13:16.274Z,13.14
2023-04-18T13:15:44.408Z,13.08
2023-04-18T13:18:12.491Z,12.99
2023-04-18T13:20:40.720Z,12.94
2023-04-18T13:23:09.058Z,12.78
2023-04-18T13:25:37.177Z,12.61
2023-04-18T13:28:05.673Z,12.67
2023-04-18T13:30:35.835Z,12.74
2023-04-18T13:33:04.255Z,12.76
2023-04-18T13:35:34.837Z,12.70
2023-04-18T13:38:03.006Z,12.67
2023-04-18T13:40:31.222Z,12.68
2023-04-18T13:42:59.517Z,12.65
2023-04-18T13:45:27.737Z,12.61
2023-04-18T13:47:56.122Z,12.65
2023-04-18T13:50:24.520Z,12.64
2023-04-18T13:52:54.813Z,12.68
2023-04-18T13:55:23.168Z,12.76
2023-04-18T13:57:51.435Z,12.60
2023-04-18T14:00:20.647Z,12.54
2023-04-18T14:02:49.946Z,12.38
2023-04-18T14:05:18.134Z,12.34
2023-04-18T14:07:48.635Z,12.26
2023-04-18T14:10:17.772Z,12.24
2023-04-18T14:12:46.135Z,12.40
2023-04-18T14:15:14.685Z,12.37
2023-04-18T14:17:45.472Z,11.78
2023-04-18T14:20:20.468Z,11.87
2023-04-18T14:22:52.362Z,11.74
2023-04-18T14:25:22.534Z,11.78
2023-04-18T14:28:06.876Z,11.68
2023-04-18T14:30:36.576Z,11.80
2023-04-18T14:33:04.911Z,12.24
2023-04-18T14:35:33.083Z,11.89
2023-04-18T14:38:01.225Z,11.74
2023-04-18T14:40:32.585Z,11.54
2023-04-18T14:43:01.242Z,11.49
2023-04-18T14:45:33.650Z,11.60
2023-04-18T14:48:01.827Z,11.50
2023-04-18T14:50:30.904Z,11.44
2023-04-18T14:52:58.988Z,11.45
2023-04-18T14:55:27.174Z,11.33
2023-04-18T14:57:55.759Z,11.26
2023-04-18T15:00:23.852Z,11.19
2023-04-18T15:02:53.115Z,11.27
2023-04-18T15:05:23.911Z,11.25
2023-04-18T15:07:52.280Z,11.23
2023-04-18T15:10:22.552Z,11.19
2023-04-18T15:12:51.381Z,11.17
2023-04-18T15:15:20.057Z,11.29
2023-04-18T15:17:48.332Z,11.18
2023-04-18T15:20:16.508Z,11.03
2023-04-18T15:22:44.571Z,10.96
2023-04-18T15:25:16.428Z,10.93
2023-04-18T15:27:52.945Z,10.70
2023-04-18T15:30:22.299Z,10.56
2023-04-18T15:32:50.517Z,10.47
2023-04-18T15:35:18.698Z,10.34
2023-04-18T15:37:47.078Z,10.21
2023-04-18T15:40:16.597Z,10.59
2023-04-18T15:42:44.861Z,10.63
2023-04-18T15:45:13.231Z,9.92
2023-04-18T15:47:41.877Z,10.04
2023-04-18T15:50:10.423Z,9.95
2023-04-18T15:52:40.928Z,9.59
2023-04-18T15:55:11.093Z,9.66
2023-04-18T15:57:39.861Z,9.69
2023-04-18T16:00:12.098Z,9.90
2023-04-18T16:02:40.360Z,9.89
2023-04-18T16:05:08.676Z,9.84
2023-04-18T16:07:37.652Z,9.68
2023-04-18T16:10:09.399Z,9.64
2023-04-18T16:12:37.961Z,9.84
2023-04-18T16:15:07.028Z,9.58
2023-04-18T16:17:36.128Z,9.77
2023-04-18T16:20:06.490Z,9.70
2023-04-18T16:22:37.216Z,9.72
2023-04-18T16:25:06.826Z,9.78
2023-04-18T16:27:42.690Z,9.56
2023-04-18T16:30:11.246Z,9.42
2023-04-18T16:32:39.932Z,9.28
2023-04-18T16:35:10.334Z,9.45
2023-04-18T16:37:43.004Z,9.31
2023-04-18T16:40:17.823Z,9.38
2023-04-18T16:42:46.002Z,9.47
2023-04-18T16:45:14.330Z,9.59
2023-04-18T16:47:42.557Z,9.68
2023-04-18T16:50:12.194Z,9.78
2023-04-18T16:52:40.730Z,9.69
2023-04-18T16:55:09.383Z,9.81
2023-04-18T16:57:37.846Z,10.02
2023-04-18T17:00:06.864Z,9.96
2023-04-18T17:02:35.842Z,10.19
2023-04-18T17:05:04.813Z,10.28
2023-04-18T17:07:33.994Z,10.27
2023-04-18T17:10:02.532Z,9.96
2023-04-18T17:12:31.396Z,9.70
2023-04-18T17:14:59.426Z,9.82
2023-04-18T17:17:29.240Z,9.61
2023-04-18T17:19:58.700Z,9.66
2023-04-18T17:22:27.021Z,9.57
2023-04-18T17:24:55.231Z,9.70
2023-04-18T17:27:23.470Z,9.77
2023-04-18T17:29:52.849Z,9.80
2023-04-18T17:32:22.690Z,9.94
2023-04-18T17:34:57.058Z,10.09
2023-04-18T17:37:37.159Z,9.89
2023-04-18T17:40:09.597Z,9.73
2023-04-18T17:42:38.599Z,9.74
2023-04-18T17:45:07.764Z,9.76
2023-04-18T17:47:36.857Z,9.72
2023-04-18T17:50:07.447Z,9.32
2023-04-18T17:52:42.142Z,9.32
2023-04-18T17:55:11.442Z,9.61
2023-04-18T17:57:39.619Z,9.77
2023-04-18T18:00:11.761Z,9.86
2023-04-18T18:02:43.221Z,9.96
2023-04-18T18:05:14.863Z,9.83
2023-04-18T18:07:48.460Z,9.71
2023-04-18T18:10:47.097Z,9.79
2023-04-18T18:13:16.992Z,9.88
2023-04-18T18:15:45.621Z,9.93
2023-04-18T18:18:31.503Z,9.74
2023-04-18T18:21:00.930Z,9.71
2023-04-18T18:23:49.129Z,9.66
2023-04-18T18:26:24.832Z,9.55
2023-04-18T18:29:09.457Z,9.45
2023-04-18T18:31:38.381Z,9.56
2023-04-18T18:34:11.053Z,9.54
2023-04-18T18:36:45.477Z,9.52
2023-04-18T18:39:16.470Z,9.55
2023-04-18T18:41:44.875Z,9.46
2023-04-18T18:44:13.096Z,9.60
2023-04-18T18:46:43.374Z,9.74
2023-04-18T18:49:14.178Z,9.68
2023-04-18T18:51:48.972Z,9.58
2023-04-18T18:54:18.996Z,9.56
2023-04-18T18:56:47.103Z,9.53
2023-04-18T18:59:19.520Z,9.58
2023-04-18T19:01:58.285Z,9.68
2023-04-18T19:04:27.134Z,9.67
2023-04-18T19:06:57.010Z,9.56
2023-04-18T19:09:25.342Z,9.57
2023-04-18T19:12:28.395Z,9.60
2023-04-18T19:15:06.021Z,9.73
2023-04-18T19:17:43.005Z,9.74
2023-04-18T19:20:14.005Z,9.60
2023-04-18T19:22:44.054Z,9.57
2023-04-18T19:25:19.051Z,9.50
2023-04-18T19:27:48.009Z,9.57
2023-04-18T19:30:16.242Z,9.62
2023-04-18T19:32:44.767Z,9.66
2023-04-18T19:35:13.465Z,9.62
2023-04-18T19:37:41.984Z,9.60
2023-04-18T19:40:10.621Z,9.65
2023-04-18T19:42:39.044Z,9.62
2023-04-18T19:45:07.652Z,9.59
2023-04-18T19:47:37.057Z,9.61
2023-04-18T19:50:06.049Z,9.57
2023-04-18T19:52:34.455Z,9.64
2023-04-18T19:55:03.233Z,9.70
2023-04-18T19:57:31.793Z,9.71
2023-04-18T20:00:00.038Z,9.70
2023-04-18T20:02:30.262Z,9.56
2023-04-18T20:04:59.069Z,9.63
2023-04-18T20:07:34.707Z,9.61
2023-04-18T20:10:04.494Z,9.53
2023-04-18T20:12:34.033Z,9.38
2023-04-18T20:15:02.246Z,9.45
2023-04-18T20:17:30.673Z,9.51
2023-04-18T20:19:59.595Z,9.44
2023-04-18T20:22:27.803Z,9.45
2023-04-18T20:24:57.384Z,9.45
2023-04-18T20:27:25.495Z,9.36
2023-04-18T20:29:56.083Z,9.60
2023-04-18T20:32:27.270Z,9.81
2023-04-18T20:34:55.421Z,9.90
2023-04-18T20:37:30.110Z,9.82
2023-04-18T20:40:02.973Z,9.81
2023-04-18T20:42:33.172Z,9.91
2023-04-18T20:45:03.213Z,9.82
2023-04-18T20:47:33.706Z,9.78
2023-04-18T20:50:02.005Z,9.83
2023-04-18T20:52:34.014Z,9.69
2023-04-18T20:55:02.128Z,9.56
2023-04-18T20:57:30.465Z,9.67
2023-04-18T20:59:59.924Z,9.69
2023-04-18T21:02:28.249Z,9.66
2023-04-18T21:04:59.188Z,9.70
2023-04-18T21:07:29.808Z,9.67
2023-04-18T21:09:58.312Z,9.80
2023-04-18T21:12:33.064Z,9.86
2023-04-18T21:15:04.460Z,9.90
2023-04-18T21:17:33.063Z,9.92
2023-04-18T21:20:03.582Z,9.73
2023-04-18T21:22:31.751Z,9.60
2023-04-18T21:25:00.238Z,9.56
2023-04-18T21:27:28.407Z,9.41
2023-04-18T21:29:56.605Z,9.38
2023-04-18T21:32:25.246Z,9.45
2023-04-18T21:34:53.387Z,9.56
2023-04-18T21:37:21.516Z,9.58
2023-04-18T21:39:50.180Z,9.65
2023-04-18T21:42:18.346Z,9.59
2023-04-18T21:44:46.455Z,9.65
2023-04-18T21:47:14.606Z,9.80
2023-04-18T21:49:42.988Z,9.87
2023-04-18T21:52:11.066Z,9.98
2023-04-18T21:54:40.308Z,9.96
2023-04-18T21:57:08.457Z,9.91
2023-04-18T21:59:36.654Z,9.70
2023-04-18T22:02:05.504Z,9.72
2023-04-18T22:04:34.823Z,9.83
2023-04-18T22:07:11.528Z,9.99
2023-04-18T22:09:47.753Z,9.92
2023-04-18T22:12:17.260Z,9.92
2023-04-18T22:14:48.483Z,10.03
2023-04-18T22:17:16.838Z,10.15
2023-04-18T22:19:49.926Z,10.17
2023-04-18T22:22:18.099Z,10.18
2023-04-18T22:24:48.265Z,10.06
2023-04-18T22:27:16.433Z,10.00
2023-04-18T22:29:44.535Z,10.01
2023-04-18T22:32:13.323Z,10.05
2023-04-18T22:34:44.891Z,10.05
2023-04-18T22:37:13.798Z,10.15
2023-04-18T22:39:41.954Z,10.27
2023-04-18T22:42:10.381Z,10.25
2023-04-18T22:44:38.512Z,10.13
2023-04-18T22:47:13.261Z,10.23
2023-04-18T22:49:42.298Z,9.99
2023-04-18T22:52:10.763Z,9.98
2023-04-18T22:54:39.594Z,9.93
2023-04-18T22:57:08.037Z,9.98
2023-04-18T22:59:36.501Z,10.05
2023-04-18T23:02:04.781Z,10.19
2023-04-18T23:04:33.686Z,10.12
2023-04-18T23:07:02.406Z,10.07
2023-04-18T23:09:30.801Z,10.09
2023-04-18T23:11:58.985Z,10.10
2023-04-18T23:14:27.693Z,9.86
2023-04-18T23:16:55.868Z,9.82
2023-04-18T23:19:23.975Z,9.87
2023-04-18T23:21:52.198Z,10.01
2023-04-18T23:24:20.333Z,9.92
2023-04-18T23:26:52.307Z,9.93
2023-04-18T23:29:20.455Z,9.95
2023-04-18T23:31:48.664Z,9.87
2023-04-18T23:34:17.068Z,9.86
2023-04-18T23:36:47.299Z,9.94
2023-04-18T23:39:17.591Z,10.01
2023-04-18T23:41:45.891Z,9.99
2023-04-18T23:44:14.260Z,9.96
2023-04-18T23:46:42.510Z,10.04
2023-04-18T23:49:11.369Z,9.86
2023-04-18T23:51:39.479Z,9.72
2023-04-18T23:54:07.683Z,9.70
2023-04-18T23:56:36.100Z,9.74
2023-04-18T23:59:04.299Z,9.93
